sensor_id;sensor_type;location;lat;lon;timestamp;P1;durP1;ratioP1;P2;durP2;ratioP2
19687;SDS011;9993;52.008;4.732;2022-11-20T00:01:30;8.50;;;6.60;;
19687;SDS011;9993;52.008;4.732;2022-11-20T00:03:56;10.60;;;7.17;;
19687;SDS011;9993;52.008;4.732;2022-11-20T00:06:23;10.20;;;7.13;;
19687;SDS011;9993;52.008;4.732;2022-11-20T00:08:48;12.97;;;8.03;;
19687;SDS011;9993;52.008;4.732;2022-11-20T00:11:15;10.23;;;7.37;;
19687;SDS011;9993;52.008;4.732;2022-11-20T00:13:40;9.17;;;6.43;;
19687;SDS011;9993;52.008;4.732;2022-11-20T00:16:06;11.50;;;6.57;;
19687;SDS011;9993;52.008;4.732;2022-11-20T00:18:32;14.00;;;9.17;;
19687;SDS011;9993;52.008;4.732;2022-11-20T00:21:17;12.70;;;7.20;;
19687;SDS011;9993;52.008;4.732;2022-11-20T00:23:43;13.00;;;7.73;;
19687;SDS011;9993;52.008;4.732;2022-11-20T00:26:09;16.73;;;9.30;;
19687;SDS011;9993;52.008;4.732;2022-11-20T00:28:35;13.67;;;7.73;;
19687;SDS011;9993;52.008;4.732;2022-11-20T00:31:01;13.63;;;7.53;;
19687;SDS011;9993;52.008;4.732;2022-11-20T00:33:27;10.97;;;7.47;;
19687;SDS011;9993;52.008;4.732;2022-11-20T00:35:52;14.50;;;7.47;;
19687;SDS011;9993;52.008;4.732;2022-11-20T00:38:17;11.13;;;7.37;;
19687;SDS011;9993;52.008;4.732;2022-11-20T00:40:42;13.00;;;9.13;;
19687;SDS011;9993;52.008;4.732;2022-11-20T00:43:08;13.57;;;7.53;;
19687;SDS011;9993;52.008;4.732;2022-11-20T00:45:33;13.97;;;8.17;;
19687;SDS011;9993;52.008;4.732;2022-11-20T00:47:58;13.53;;;8.10;;
19687;SDS011;9993;52.008;4.732;2022-11-20T00:50:23;12.83;;;9.30;;
19687;SDS011;9993;52.008;4.732;2022-11-20T00:52:49;12.70;;;8.20;;
19687;SDS011;9993;52.008;4.732;2022-11-20T00:55:14;11.50;;;7.90;;
19687;SDS011;9993;52.008;4.732;2022-11-20T00:57:39;14.33;;;8.83;;
19687;SDS011;9993;52.008;4.732;2022-11-20T01:00:04;14.57;;;7.47;;
19687;SDS011;9993;52.008;4.732;2022-11-20T01:02:30;12.53;;;8.00;;
19687;SDS011;9993;52.008;4.732;2022-11-20T01:04:57;8.83;;;7.10;;
19687;SDS011;9993;52.008;4.732;2022-11-20T01:07:24;16.63;;;9.40;;
19687;SDS011;9993;52.008;4.732;2022-11-20T01:09:49;13.87;;;7.60;;
19687;SDS011;9993;52.008;4.732;2022-11-20T01:12:15;10.57;;;7.27;;
19687;SDS011;9993;52.008;4.732;2022-11-20T01:14:40;15.97;;;9.07;;
19687;SDS011;9993;52.008;4.732;2022-11-20T01:17:05;8.73;;;6.47;;
19687;SDS011;9993;52.008;4.732;2022-11-20T01:19:30;9.73;;;7.57;;
19687;SDS011;9993;52.008;4.732;2022-11-20T01:21:55;12.03;;;6.23;;
19687;SDS011;9993;52.008;4.732;2022-11-20T01:24:21;11.47;;;7.83;;
19687;SDS011;9993;52.008;4.732;2022-11-20T01:26:48;10.27;;;6.93;;
19687;SDS011;9993;52.008;4.732;2022-11-20T01:29:14;10.63;;;6.87;;
19687;SDS011;9993;52.008;4.732;2022-11-20T01:31:40;11.33;;;7.33;;
19687;SDS011;9993;52.008;4.732;2022-11-20T01:34:06;11.30;;;7.17;;
19687;SDS011;9993;52.008;4.732;2022-11-20T01:36:33;14.23;;;7.27;;
19687;SDS011;9993;52.008;4.732;2022-11-20T01:38:59;16.07;;;7.23;;
19687;SDS011;9993;52.008;4.732;2022-11-20T01:41:25;10.83;;;7.13;;
19687;SDS011;9993;52.008;4.732;2022-11-20T01:44:10;13.03;;;7.60;;
19687;SDS011;9993;52.008;4.732;2022-11-20T01:46:36;12.03;;;7.07;;
19687;SDS011;9993;52.008;4.732;2022-11-20T01:51:50;9.33;;;6.87;;
19687;SDS011;9993;52.008;4.732;2022-11-20T01:54:25;11.70;;;7.47;;
19687;SDS011;9993;52.008;4.732;2022-11-20T01:56:53;12.23;;;6.63;;
19687;SDS011;9993;52.008;4.732;2022-11-20T01:59:19;8.27;;;6.43;;
19687;SDS011;9993;52.008;4.732;2022-11-20T02:01:45;11.87;;;7.00;;
19687;SDS011;9993;52.008;4.732;2022-11-20T02:04:10;8.50;;;7.17;;
19687;SDS011;9993;52.008;4.732;2022-11-20T02:06:40;9.27;;;6.83;;
19687;SDS011;9993;52.008;4.732;2022-11-20T02:09:07;10.63;;;6.70;;
19687;SDS011;9993;52.008;4.732;2022-11-20T02:11:32;12.70;;;6.73;;
19687;SDS011;9993;52.008;4.732;2022-11-20T02:13:57;9.40;;;7.10;;
19687;SDS011;9993;52.008;4.732;2022-11-20T02:16:24;9.20;;;7.10;;
19687;SDS011;9993;52.008;4.732;2022-11-20T02:18:50;10.47;;;7.80;;
19687;SDS011;9993;52.008;4.732;2022-11-20T02:21:21;11.33;;;6.30;;
19687;SDS011;9993;52.008;4.732;2022-11-20T02:26:35;8.47;;;5.20;;
19687;SDS011;9993;52.008;4.732;2022-11-20T02:29:03;9.73;;;7.00;;
19687;SDS011;9993;52.008;4.732;2022-11-20T02:31:28;9.97;;;6.80;;
19687;SDS011;9993;52.008;4.732;2022-11-20T02:37:35;9.53;;;6.40;;
19687;SDS011;9993;52.008;4.732;2022-11-20T02:40:02;10.77;;;7.20;;
19687;SDS011;9993;52.008;4.732;2022-11-20T02:42:27;10.43;;;7.20;;
19687;SDS011;9993;52.008;4.732;2022-11-20T02:44:52;7.80;;;6.33;;
19687;SDS011;9993;52.008;4.732;2022-11-20T02:47:17;13.10;;;7.87;;
19687;SDS011;9993;52.008;4.732;2022-11-20T02:49:42;11.77;;;6.83;;
19687;SDS011;9993;52.008;4.732;2022-11-20T02:52:08;7.90;;;6.40;;
19687;SDS011;9993;52.008;4.732;2022-11-20T02:54:33;10.53;;;7.70;;
19687;SDS011;9993;52.008;4.732;2022-11-20T02:56:58;11.97;;;7.03;;
19687;SDS011;9993;52.008;4.732;2022-11-20T02:59:23;13.07;;;7.43;;
19687;SDS011;9993;52.008;4.732;2022-11-20T03:01:48;10.13;;;7.20;;
19687;SDS011;9993;52.008;4.732;2022-11-20T03:04:14;11.87;;;7.20;;
19687;SDS011;9993;52.008;4.732;2022-11-20T03:06:39;9.33;;;6.63;;
19687;SDS011;9993;52.008;4.732;2022-11-20T03:09:04;13.47;;;8.83;;
19687;SDS011;9993;52.008;4.732;2022-11-20T03:11:29;12.97;;;7.57;;
19687;SDS011;9993;52.008;4.732;2022-11-20T03:13:54;13.57;;;8.93;;
19687;SDS011;9993;52.008;4.732;2022-11-20T03:16:20;14.10;;;7.83;;
19687;SDS011;9993;52.008;4.732;2022-11-20T03:18:46;10.07;;;7.73;;
19687;SDS011;9993;52.008;4.732;2022-11-20T03:21:12;14.93;;;8.60;;
19687;SDS011;9993;52.008;4.732;2022-11-20T03:23:38;12.23;;;8.03;;
19687;SDS011;9993;52.008;4.732;2022-11-20T03:26:15;13.43;;;8.03;;
19687;SDS011;9993;52.008;4.732;2022-11-20T03:28:41;15.07;;;7.67;;
19687;SDS011;9993;52.008;4.732;2022-11-20T03:31:07;13.17;;;7.27;;
19687;SDS011;9993;52.008;4.732;2022-11-20T03:33:33;13.70;;;7.97;;
19687;SDS011;9993;52.008;4.732;2022-11-20T03:36:05;13.03;;;8.53;;
19687;SDS011;9993;52.008;4.732;2022-11-20T03:38:31;13.60;;;7.97;;
19687;SDS011;9993;52.008;4.732;2022-11-20T03:41:03;11.90;;;7.47;;
19687;SDS011;9993;52.008;4.732;2022-11-20T03:43:28;13.17;;;7.83;;
19687;SDS011;9993;52.008;4.732;2022-11-20T03:45:54;10.63;;;6.80;;
19687;SDS011;9993;52.008;4.732;2022-11-20T03:48:19;10.97;;;7.70;;
19687;SDS011;9993;52.008;4.732;2022-11-20T03:50:44;10.57;;;7.77;;
19687;SDS011;9993;52.008;4.732;2022-11-20T03:53:12;15.13;;;9.33;;
19687;SDS011;9993;52.008;4.732;2022-11-20T03:55:37;13.87;;;7.70;;
19687;SDS011;9993;52.008;4.732;2022-11-20T03:58:02;11.83;;;7.50;;
19687;SDS011;9993;52.008;4.732;2022-11-20T04:00:28;14.80;;;9.00;;
19687;SDS011;9993;52.008;4.732;2022-11-20T04:02:53;12.27;;;8.37;;
19687;SDS011;9993;52.008;4.732;2022-11-20T04:05:18;12.20;;;6.93;;
19687;SDS011;9993;52.008;4.732;2022-11-20T04:07:43;13.13;;;7.43;;
19687;SDS011;9993;52.008;4.732;2022-11-20T04:10:08;12.03;;;8.00;;
19687;SDS011;9993;52.008;4.732;2022-11-20T04:12:34;10.50;;;7.13;;
19687;SDS011;9993;52.008;4.732;2022-11-20T04:14:59;9.93;;;6.63;;
19687;SDS011;9993;52.008;4.732;2022-11-20T04:17:24;12.57;;;8.10;;
19687;SDS011;9993;52.008;4.732;2022-11-20T04:19:49;12.97;;;7.73;;
19687;SDS011;9993;52.008;4.732;2022-11-20T04:22:14;11.50;;;7.57;;
19687;SDS011;9993;52.008;4.732;2022-11-20T04:24:40;11.13;;;8.10;;
19687;SDS011;9993;52.008;4.732;2022-11-20T04:27:05;10.50;;;8.13;;
19687;SDS011;9993;52.008;4.732;2022-11-20T04:29:30;12.33;;;7.90;;
19687;SDS011;9993;52.008;4.732;2022-11-20T04:31:55;9.10;;;6.57;;
19687;SDS011;9993;52.008;4.732;2022-11-20T04:34:20;13.23;;;8.50;;
19687;SDS011;9993;52.008;4.732;2022-11-20T04:36:46;14.87;;;10.03;;
19687;SDS011;9993;52.008;4.732;2022-11-20T04:39:12;9.27;;;7.23;;
19687;SDS011;9993;52.008;4.732;2022-11-20T04:41:38;14.73;;;8.27;;
19687;SDS011;9993;52.008;4.732;2022-11-20T04:44:03;13.30;;;7.77;;
19687;SDS011;9993;52.008;4.732;2022-11-20T04:46:30;11.43;;;8.23;;
19687;SDS011;9993;52.008;4.732;2022-11-20T04:48:55;10.60;;;7.90;;
19687;SDS011;9993;52.008;4.732;2022-11-20T04:51:21;15.10;;;8.03;;
19687;SDS011;9993;52.008;4.732;2022-11-20T04:53:46;10.70;;;8.27;;
19687;SDS011;9993;52.008;4.732;2022-11-20T04:56:12;11.60;;;7.70;;
19687;SDS011;9993;52.008;4.732;2022-11-20T04:58:37;10.30;;;7.77;;
19687;SDS011;9993;52.008;4.732;2022-11-20T05:01:03;9.27;;;6.63;;
19687;SDS011;9993;52.008;4.732;2022-11-20T05:03:29;11.07;;;7.17;;
19687;SDS011;9993;52.008;4.732;2022-11-20T05:05:54;10.43;;;6.30;;
19687;SDS011;9993;52.008;4.732;2022-11-20T05:08:19;10.83;;;6.93;;
19687;SDS011;9993;52.008;4.732;2022-11-20T05:10:44;9.50;;;6.93;;
19687;SDS011;9993;52.008;4.732;2022-11-20T05:13:10;10.37;;;7.20;;
19687;SDS011;9993;52.008;4.732;2022-11-20T05:15:35;11.03;;;8.07;;
19687;SDS011;9993;52.008;4.732;2022-11-20T05:18:00;11.87;;;7.00;;
19687;SDS011;9993;52.008;4.732;2022-11-20T05:20:25;7.73;;;6.33;;
19687;SDS011;9993;52.008;4.732;2022-11-20T05:22:50;21.33;;;9.37;;
19687;SDS011;9993;52.008;4.732;2022-11-20T05:25:16;9.17;;;6.23;;
19687;SDS011;9993;52.008;4.732;2022-11-20T05:27:41;9.73;;;6.87;;
19687;SDS011;9993;52.008;4.732;2022-11-20T05:30:06;7.60;;;5.57;;
19687;SDS011;9993;52.008;4.732;2022-11-20T05:32:32;13.30;;;7.83;;
19687;SDS011;9993;52.008;4.732;2022-11-20T05:34:57;9.57;;;6.93;;
19687;SDS011;9993;52.008;4.732;2022-11-20T05:37:22;8.53;;;6.17;;
19687;SDS011;9993;52.008;4.732;2022-11-20T05:39:48;10.67;;;6.77;;
19687;SDS011;9993;52.008;4.732;2022-11-20T05:42:13;10.83;;;7.57;;
19687;SDS011;9993;52.008;4.732;2022-11-20T05:45:00;12.20;;;7.97;;
19687;SDS011;9993;52.008;4.732;2022-11-20T05:47:26;11.27;;;7.07;;
19687;SDS011;9993;52.008;4.732;2022-11-20T05:49:52;12.97;;;8.00;;
19687;SDS011;9993;52.008;4.732;2022-11-20T05:52:17;11.90;;;7.40;;
19687;SDS011;9993;52.008;4.732;2022-11-20T05:54:42;12.23;;;7.83;;
19687;SDS011;9993;52.008;4.732;2022-11-20T05:57:07;10.83;;;7.43;;
19687;SDS011;9993;52.008;4.732;2022-11-20T05:59:32;10.90;;;6.97;;
19687;SDS011;9993;52.008;4.732;2022-11-20T06:01:57;12.67;;;7.87;;
19687;SDS011;9993;52.008;4.732;2022-11-20T06:04:23;11.03;;;8.00;;
19687;SDS011;9993;52.008;4.732;2022-11-20T06:06:48;15.03;;;8.57;;
19687;SDS011;9993;52.008;4.732;2022-11-20T06:09:13;12.57;;;8.13;;
19687;SDS011;9993;52.008;4.732;2022-11-20T06:11:38;14.77;;;8.70;;
19687;SDS011;9993;52.008;4.732;2022-11-20T06:14:04;13.57;;;8.73;;
19687;SDS011;9993;52.008;4.732;2022-11-20T06:16:29;14.07;;;7.70;;
19687;SDS011;9993;52.008;4.732;2022-11-20T06:18:54;15.60;;;8.70;;
19687;SDS011;9993;52.008;4.732;2022-11-20T06:21:20;11.30;;;7.70;;
19687;SDS011;9993;52.008;4.732;2022-11-20T06:23:46;18.17;;;9.43;;
19687;SDS011;9993;52.008;4.732;2022-11-20T06:26:12;14.03;;;7.57;;
19687;SDS011;9993;52.008;4.732;2022-11-20T06:28:38;16.37;;;8.90;;
19687;SDS011;9993;52.008;4.732;2022-11-20T06:31:04;15.47;;;9.40;;
19687;SDS011;9993;52.008;4.732;2022-11-20T06:33:29;20.20;;;9.80;;
19687;SDS011;9993;52.008;4.732;2022-11-20T06:35:58;11.30;;;7.13;;
19687;SDS011;9993;52.008;4.732;2022-11-20T06:38:27;13.90;;;8.77;;
19687;SDS011;9993;52.008;4.732;2022-11-20T06:40:52;11.47;;;8.30;;
19687;SDS011;9993;52.008;4.732;2022-11-20T06:43:18;12.40;;;9.00;;
19687;SDS011;9993;52.008;4.732;2022-11-20T06:45:43;17.13;;;7.90;;
19687;SDS011;9993;52.008;4.732;2022-11-20T06:48:08;12.33;;;8.33;;
19687;SDS011;9993;52.008;4.732;2022-11-20T06:50:34;9.10;;;7.50;;
19687;SDS011;9993;52.008;4.732;2022-11-20T06:53:01;11.83;;;7.23;;
19687;SDS011;9993;52.008;4.732;2022-11-20T06:55:27;12.90;;;8.60;;
19687;SDS011;9993;52.008;4.732;2022-11-20T06:57:52;15.60;;;9.17;;
19687;SDS011;9993;52.008;4.732;2022-11-20T07:00:18;19.87;;;8.73;;
19687;SDS011;9993;52.008;4.732;2022-11-20T07:02:43;13.10;;;8.50;;
19687;SDS011;9993;52.008;4.732;2022-11-20T07:05:08;15.70;;;9.87;;
19687;SDS011;9993;52.008;4.732;2022-11-20T07:07:33;15.33;;;9.13;;
19687;SDS011;9993;52.008;4.732;2022-11-20T07:09:58;15.57;;;9.23;;
19687;SDS011;9993;52.008;4.732;2022-11-20T07:12:24;17.40;;;9.27;;
19687;SDS011;9993;52.008;4.732;2022-11-20T07:14:49;18.23;;;9.40;;
19687;SDS011;9993;52.008;4.732;2022-11-20T07:17:14;13.77;;;10.57;;
19687;SDS011;9993;52.008;4.732;2022-11-20T07:19:39;14.50;;;9.20;;
19687;SDS011;9993;52.008;4.732;2022-11-20T07:22:05;21.93;;;11.77;;
19687;SDS011;9993;52.008;4.732;2022-11-20T07:24:30;17.10;;;12.07;;
19687;SDS011;9993;52.008;4.732;2022-11-20T07:26:55;18.30;;;11.40;;
19687;SDS011;9993;52.008;4.732;2022-11-20T07:29:20;17.87;;;10.80;;
19687;SDS011;9993;52.008;4.732;2022-11-20T07:31:46;16.40;;;9.73;;
19687;SDS011;9993;52.008;4.732;2022-11-20T07:34:11;14.33;;;9.27;;
19687;SDS011;9993;52.008;4.732;2022-11-20T07:36:36;16.73;;;9.17;;
19687;SDS011;9993;52.008;4.732;2022-11-20T07:41:32;15.23;;;9.33;;
19687;SDS011;9993;52.008;4.732;2022-11-20T07:43:57;18.87;;;10.83;;
19687;SDS011;9993;52.008;4.732;2022-11-20T07:46:22;18.13;;;8.23;;
19687;SDS011;9993;52.008;4.732;2022-11-20T07:48:47;15.03;;;10.77;;
19687;SDS011;9993;52.008;4.732;2022-11-20T07:51:13;17.47;;;10.27;;
19687;SDS011;9993;52.008;4.732;2022-11-20T07:53:38;19.77;;;11.20;;
19687;SDS011;9993;52.008;4.732;2022-11-20T07:56:03;16.60;;;9.27;;
19687;SDS011;9993;52.008;4.732;2022-11-20T07:58:29;21.27;;;12.03;;
19687;SDS011;9993;52.008;4.732;2022-11-20T08:00:56;18.70;;;11.13;;
19687;SDS011;9993;52.008;4.732;2022-11-20T08:03:21;16.47;;;10.73;;
19687;SDS011;9993;52.008;4.732;2022-11-20T08:05:48;19.37;;;11.93;;
19687;SDS011;9993;52.008;4.732;2022-11-20T08:08:13;18.33;;;11.47;;
19687;SDS011;9993;52.008;4.732;2022-11-20T08:10:38;19.83;;;10.90;;
19687;SDS011;9993;52.008;4.732;2022-11-20T08:13:03;21.70;;;12.47;;
19687;SDS011;9993;52.008;4.732;2022-11-20T08:15:48;19.27;;;11.70;;
19687;SDS011;9993;52.008;4.732;2022-11-20T08:18:15;20.30;;;11.27;;
19687;SDS011;9993;52.008;4.732;2022-11-20T08:20:40;17.50;;;11.77;;
19687;SDS011;9993;52.008;4.732;2022-11-20T08:23:06;22.53;;;11.63;;
19687;SDS011;9993;52.008;4.732;2022-11-20T08:25:32;18.03;;;10.37;;
19687;SDS011;9993;52.008;4.732;2022-11-20T08:27:58;18.43;;;10.50;;
19687;SDS011;9993;52.008;4.732;2022-11-20T08:30:26;15.10;;;10.70;;
19687;SDS011;9993;52.008;4.732;2022-11-20T08:32:51;20.23;;;11.30;;
19687;SDS011;9993;52.008;4.732;2022-11-20T08:35:17;17.90;;;11.27;;
19687;SDS011;9993;52.008;4.732;2022-11-20T08:37:45;22.43;;;12.80;;
19687;SDS011;9993;52.008;4.732;2022-11-20T08:40:10;22.20;;;12.03;;
19687;SDS011;9993;52.008;4.732;2022-11-20T08:42:36;19.50;;;11.70;;
19687;SDS011;9993;52.008;4.732;2022-11-20T08:45:01;22.60;;;11.83;;
19687;SDS011;9993;52.008;4.732;2022-11-20T08:47:26;20.37;;;11.57;;
19687;SDS011;9993;52.008;4.732;2022-11-20T08:49:51;23.63;;;12.70;;
19687;SDS011;9993;52.008;4.732;2022-11-20T08:52:17;21.27;;;13.13;;
19687;SDS011;9993;52.008;4.732;2022-11-20T08:54:42;18.83;;;12.67;;
19687;SDS011;9993;52.008;4.732;2022-11-20T08:57:07;21.33;;;13.93;;
19687;SDS011;9993;52.008;4.732;2022-11-20T08:59:33;19.20;;;12.97;;
19687;SDS011;9993;52.008;4.732;2022-11-20T09:01:58;20.33;;;12.47;;
19687;SDS011;9993;52.008;4.732;2022-11-20T09:04:23;21.63;;;14.10;;
19687;SDS011;9993;52.008;4.732;2022-11-20T09:06:48;19.80;;;11.97;;
19687;SDS011;9993;52.008;4.732;2022-11-20T09:09:15;21.27;;;13.50;;
19687;SDS011;9993;52.008;4.732;2022-11-20T09:11:41;12.33;;;9.30;;
19687;SDS011;9993;52.008;4.732;2022-11-20T09:14:06;18.83;;;11.80;;
19687;SDS011;9993;52.008;4.732;2022-11-20T09:16:31;18.10;;;12.93;;
19687;SDS011;9993;52.008;4.732;2022-11-20T09:18:56;19.37;;;12.00;;
19687;SDS011;9993;52.008;4.732;2022-11-20T09:21:21;21.87;;;14.07;;
19687;SDS011;9993;52.008;4.732;2022-11-20T09:23:47;22.77;;;13.30;;
19687;SDS011;9993;52.008;4.732;2022-11-20T09:26:13;25.73;;;14.30;;
19687;SDS011;9993;52.008;4.732;2022-11-20T09:28:38;12.17;;;7.73;;
19687;SDS011;9993;52.008;4.732;2022-11-20T09:31:07;17.83;;;12.07;;
19687;SDS011;9993;52.008;4.732;2022-11-20T09:33:33;23.00;;;13.67;;
19687;SDS011;9993;52.008;4.732;2022-11-20T09:35:58;23.57;;;15.07;;
19687;SDS011;9993;52.008;4.732;2022-11-20T09:38:23;25.30;;;14.67;;
19687;SDS011;9993;52.008;4.732;2022-11-20T09:40:57;28.10;;;14.67;;
19687;SDS011;9993;52.008;4.732;2022-11-20T09:53:35;20.83;;;12.73;;
19687;SDS011;9993;52.008;4.732;2022-11-20T09:56:03;23.17;;;13.30;;
19687;SDS011;9993;52.008;4.732;2022-11-20T09:58:42;25.37;;;15.53;;
19687;SDS011;9993;52.008;4.732;2022-11-20T10:01:19;22.87;;;13.93;;
19687;SDS011;9993;52.008;4.732;2022-11-20T10:03:54;22.67;;;15.07;;
19687;SDS011;9993;52.008;4.732;2022-11-20T10:06:23;19.87;;;13.40;;
19687;SDS011;9993;52.008;4.732;2022-11-20T10:08:53;21.90;;;14.77;;
19687;SDS011;9993;52.008;4.732;2022-11-20T10:11:21;21.30;;;12.67;;
19687;SDS011;9993;52.008;4.732;2022-11-20T10:13:52;24.10;;;14.37;;
19687;SDS011;9993;52.008;4.732;2022-11-20T10:21:52;26.60;;;15.53;;
19687;SDS011;9993;52.008;4.732;2022-11-20T10:26:49;22.80;;;13.63;;
19687;SDS011;9993;52.008;4.732;2022-11-20T10:29:16;25.43;;;15.30;;
19687;SDS011;9993;52.008;4.732;2022-11-20T10:31:47;26.13;;;16.03;;
19687;SDS011;9993;52.008;4.732;2022-11-20T10:36:48;24.93;;;14.40;;
19687;SDS011;9993;52.008;4.732;2022-11-20T10:39:16;19.23;;;13.43;;
19687;SDS011;9993;52.008;4.732;2022-11-20T10:41:43;23.17;;;13.63;;
19687;SDS011;9993;52.008;4.732;2022-11-20T10:44:14;23.97;;;14.60;;
19687;SDS011;9993;52.008;4.732;2022-11-20T10:47:00;23.00;;;13.57;;
19687;SDS011;9993;52.008;4.732;2022-11-20T10:49:25;27.97;;;15.47;;
19687;SDS011;9993;52.008;4.732;2022-11-20T10:54:30;23.47;;;14.87;;
19687;SDS011;9993;52.008;4.732;2022-11-20T10:56:58;23.13;;;14.43;;
19687;SDS011;9993;52.008;4.732;2022-11-20T11:00:08;19.07;;;12.90;;
19687;SDS011;9993;52.008;4.732;2022-11-20T11:02:21;22.10;;;14.20;;
19687;SDS011;9993;52.008;4.732;2022-11-20T11:04:47;24.40;;;15.33;;
19687;SDS011;9993;52.008;4.732;2022-11-20T11:09:49;21.50;;;12.87;;
19687;SDS011;9993;52.008;4.732;2022-11-20T11:12:15;19.57;;;12.10;;
19687;SDS011;9993;52.008;4.732;2022-11-20T11:14:48;21.90;;;15.10;;
19687;SDS011;9993;52.008;4.732;2022-11-20T11:17:29;19.63;;;13.37;;
19687;SDS011;9993;52.008;4.732;2022-11-20T11:22:23;21.90;;;14.37;;
19687;SDS011;9993;52.008;4.732;2022-11-20T11:24:51;22.40;;;15.47;;
19687;SDS011;9993;52.008;4.732;2022-11-20T11:27:17;21.17;;;13.67;;
19687;SDS011;9993;52.008;4.732;2022-11-20T11:29:42;25.13;;;13.63;;
19687;SDS011;9993;52.008;4.732;2022-11-20T11:32:15;20.37;;;13.07;;
19687;SDS011;9993;52.008;4.732;2022-11-20T11:34:40;24.53;;;15.47;;
19687;SDS011;9993;52.008;4.732;2022-11-20T11:37:10;24.43;;;14.73;;
19687;SDS011;9993;52.008;4.732;2022-11-20T11:39:37;19.80;;;13.70;;
19687;SDS011;9993;52.008;4.732;2022-11-20T11:42:05;22.97;;;13.47;;
19687;SDS011;9993;52.008;4.732;2022-11-20T11:44:31;21.53;;;14.97;;
19687;SDS011;9993;52.008;4.732;2022-11-20T11:47:21;24.90;;;14.33;;
19687;SDS011;9993;52.008;4.732;2022-11-20T11:49:47;24.73;;;13.53;;
19687;SDS011;9993;52.008;4.732;2022-11-20T11:57:10;31.17;;;15.97;;
19687;SDS011;9993;52.008;4.732;2022-11-20T11:59:54;28.40;;;16.37;;
19687;SDS011;9993;52.008;4.732;2022-11-20T12:04:54;29.53;;;16.43;;
19687;SDS011;9993;52.008;4.732;2022-11-20T12:07:24;34.53;;;18.10;;
19687;SDS011;9993;52.008;4.732;2022-11-20T12:09:52;25.53;;;13.97;;
19687;SDS011;9993;52.008;4.732;2022-11-20T12:12:19;28.50;;;15.17;;
19687;SDS011;9993;52.008;4.732;2022-11-20T12:14:46;20.40;;;13.80;;
19687;SDS011;9993;52.008;4.732;2022-11-20T12:17:13;29.77;;;16.33;;
19687;SDS011;9993;52.008;4.732;2022-11-20T12:19:38;23.07;;;13.87;;
19687;SDS011;9993;52.008;4.732;2022-11-20T12:25:12;31.60;;;18.43;;
19687;SDS011;9993;52.008;4.732;2022-11-20T12:30:20;28.00;;;18.00;;
19687;SDS011;9993;52.008;4.732;2022-11-20T12:35:30;25.50;;;16.87;;
19687;SDS011;9993;52.008;4.732;2022-11-20T12:51:13;24.07;;;13.50;;
19687;SDS011;9993;52.008;4.732;2022-11-20T12:53:55;22.83;;;14.27;;
19687;SDS011;9993;52.008;4.732;2022-11-20T13:01:52;25.87;;;13.60;;
19687;SDS011;9993;52.008;4.732;2022-11-20T13:07:12;25.57;;;14.87;;
19687;SDS011;9993;52.008;4.732;2022-11-20T13:09:47;29.50;;;16.50;;
19687;SDS011;9993;52.008;4.732;2022-11-20T13:14:53;33.90;;;16.63;;
19687;SDS011;9993;52.008;4.732;2022-11-20T13:17:20;31.80;;;17.57;;
19687;SDS011;9993;52.008;4.732;2022-11-20T13:19:52;24.73;;;15.73;;
19687;SDS011;9993;52.008;4.732;2022-11-20T13:22:24;33.07;;;17.27;;
19687;SDS011;9993;52.008;4.732;2022-11-20T13:24:50;38.63;;;18.23;;
19687;SDS011;9993;52.008;4.732;2022-11-20T13:27:18;32.47;;;18.80;;
19687;SDS011;9993;52.008;4.732;2022-11-20T13:32:57;32.90;;;16.57;;
19687;SDS011;9993;52.008;4.732;2022-11-20T13:35:29;26.73;;;16.10;;
19687;SDS011;9993;52.008;4.732;2022-11-20T13:38:14;30.83;;;17.57;;
19687;SDS011;9993;52.008;4.732;2022-11-20T13:40:58;35.17;;;17.97;;
19687;SDS011;9993;52.008;4.732;2022-11-20T13:43:44;25.37;;;12.23;;
19687;SDS011;9993;52.008;4.732;2022-11-20T13:46:11;37.90;;;17.10;;
19687;SDS011;9993;52.008;4.732;2022-11-20T13:48:41;30.97;;;17.57;;
19687;SDS011;9993;52.008;4.732;2022-11-20T13:51:08;38.13;;;17.07;;
19687;SDS011;9993;52.008;4.732;2022-11-20T13:56:10;30.13;;;16.37;;
19687;SDS011;9993;52.008;4.732;2022-11-20T14:01:26;21.63;;;11.87;;
19687;SDS011;9993;52.008;4.732;2022-11-20T14:03:53;36.50;;;20.10;;
19687;SDS011;9993;52.008;4.732;2022-11-20T14:06:32;31.03;;;15.50;;
19687;SDS011;9993;52.008;4.732;2022-11-20T14:08:58;41.83;;;21.23;;
19687;SDS011;9993;52.008;4.732;2022-11-20T14:11:25;40.03;;;18.97;;
19687;SDS011;9993;52.008;4.732;2022-11-20T14:13:55;37.97;;;21.50;;
19687;SDS011;9993;52.008;4.732;2022-11-20T14:16:21;35.57;;;17.87;;
19687;SDS011;9993;52.008;4.732;2022-11-20T14:18:46;40.30;;;21.00;;
19687;SDS011;9993;52.008;4.732;2022-11-20T14:21:11;35.87;;;19.43;;
19687;SDS011;9993;52.008;4.732;2022-11-20T14:23:45;45.30;;;18.93;;
19687;SDS011;9993;52.008;4.732;2022-11-20T14:26:12;37.67;;;17.87;;
19687;SDS011;9993;52.008;4.732;2022-11-20T14:28:38;38.43;;;19.93;;
19687;SDS011;9993;52.008;4.732;2022-11-20T14:31:08;41.80;;;19.40;;
19687;SDS011;9993;52.008;4.732;2022-11-20T14:33:41;42.77;;;19.80;;
19687;SDS011;9993;52.008;4.732;2022-11-20T14:36:15;39.57;;;18.67;;
19687;SDS011;9993;52.008;4.732;2022-11-20T14:38:41;46.80;;;22.40;;
19687;SDS011;9993;52.008;4.732;2022-11-20T14:41:08;45.87;;;22.20;;
19687;SDS011;9993;52.008;4.732;2022-11-20T14:43:33;42.30;;;20.93;;
19687;SDS011;9993;52.008;4.732;2022-11-20T14:46:08;50.53;;;22.03;;
19687;SDS011;9993;52.008;4.732;2022-11-20T14:48:37;45.83;;;22.13;;
19687;SDS011;9993;52.008;4.732;2022-11-20T14:51:03;42.00;;;21.67;;
19687;SDS011;9993;52.008;4.732;2022-11-20T14:53:28;43.23;;;20.73;;
19687;SDS011;9993;52.008;4.732;2022-11-20T14:55:56;34.17;;;17.00;;
19687;SDS011;9993;52.008;4.732;2022-11-20T14:58:22;51.60;;;23.50;;
19687;SDS011;9993;52.008;4.732;2022-11-20T15:00:55;32.67;;;16.67;;
19687;SDS011;9993;52.008;4.732;2022-11-20T15:03:20;36.70;;;18.63;;
19687;SDS011;9993;52.008;4.732;2022-11-20T15:05:47;39.17;;;19.63;;
19687;SDS011;9993;52.008;4.732;2022-11-20T15:08:14;40.57;;;19.27;;
19687;SDS011;9993;52.008;4.732;2022-11-20T15:10:44;41.77;;;20.33;;
19687;SDS011;9993;52.008;4.732;2022-11-20T15:13:11;49.00;;;22.10;;
19687;SDS011;9993;52.008;4.732;2022-11-20T15:15:50;36.90;;;18.97;;
19687;SDS011;9993;52.008;4.732;2022-11-20T15:18:27;42.77;;;20.80;;
19687;SDS011;9993;52.008;4.732;2022-11-20T15:20:53;56.17;;;24.57;;
19687;SDS011;9993;52.008;4.732;2022-11-20T15:23:19;40.00;;;21.53;;
19687;SDS011;9993;52.008;4.732;2022-11-20T15:25:45;38.83;;;19.47;;
19687;SDS011;9993;52.008;4.732;2022-11-20T15:28:32;44.30;;;23.37;;
19687;SDS011;9993;52.008;4.732;2022-11-20T15:30:56;36.63;;;19.97;;
19687;SDS011;9993;52.008;4.732;2022-11-20T15:33:22;41.57;;;22.40;;
19687;SDS011;9993;52.008;4.732;2022-11-20T15:35:47;38.73;;;21.57;;
19687;SDS011;9993;52.008;4.732;2022-11-20T15:38:15;53.10;;;23.13;;
19687;SDS011;9993;52.008;4.732;2022-11-20T15:40:40;38.33;;;21.60;;
19687;SDS011;9993;52.008;4.732;2022-11-20T15:43:05;38.93;;;20.17;;
19687;SDS011;9993;52.008;4.732;2022-11-20T15:45:39;25.33;;;13.83;;
19687;SDS011;9993;52.008;4.732;2022-11-20T15:48:08;38.23;;;21.53;;
19687;SDS011;9993;52.008;4.732;2022-11-20T15:50:41;29.07;;;17.27;;
19687;SDS011;9993;52.008;4.732;2022-11-20T15:53:08;39.53;;;22.23;;
19687;SDS011;9993;52.008;4.732;2022-11-20T15:55:34;36.07;;;18.93;;
19687;SDS011;9993;52.008;4.732;2022-11-20T15:57:59;42.23;;;22.77;;
19687;SDS011;9993;52.008;4.732;2022-11-20T16:00:24;36.77;;;19.37;;
19687;SDS011;9993;52.008;4.732;2022-11-20T16:02:50;48.67;;;22.93;;
19687;SDS011;9993;52.008;4.732;2022-11-20T16:05:15;50.73;;;24.73;;
19687;SDS011;9993;52.008;4.732;2022-11-20T16:07:42;44.27;;;23.40;;
19687;SDS011;9993;52.008;4.732;2022-11-20T16:10:07;43.37;;;21.90;;
19687;SDS011;9993;52.008;4.732;2022-11-20T16:12:32;43.57;;;21.20;;